createdAt,value
2018-06-14T00:01:10.459Z,4.73
2018-06-14T00:03:41.283Z,4.67
2018-06-14T00:06:12.285Z,5.30
2018-06-14T00:08:43.219Z,5.20
2018-06-14T00:11:14.414Z,5.00
2018-06-14T00:13:45.471Z,7.60
2018-06-14T00:16:16.589Z,9.20
2018-06-14T00:18:47.860Z,4.77
2018-06-14T00:21:18.997Z,3.97
2018-06-14T00:23:49.865Z,4.63
2018-06-14T00:26:20.977Z,4.43
2018-06-14T00:28:52.021Z,5.43
2018-06-14T00:31:24.936Z,5.10
2018-06-14T00:33:55.901Z,4.83
2018-06-14T00:36:26.866Z,4.47
2018-06-14T00:38:58.075Z,9.23
2018-06-14T00:41:29.120Z,4.93
2018-06-14T00:44:00.252Z,6.63
2018-06-14T00:46:31.291Z,5.20
2018-06-14T00:49:02.346Z,5.80
2018-06-14T00:51:33.348Z,5.90
2018-06-14T00:54:04.320Z,7.30
2018-06-14T00:56:45.611Z,6.30
2018-06-14T00:59:16.451Z,9.13
2018-06-14T01:01:49.175Z,6.50
2018-06-14T01:04:20.291Z,5.20
2018-06-14T01:06:51.424Z,5.43
2018-06-14T01:09:22.377Z,4.50
2018-06-14T01:11:53.498Z,4.97
2018-06-14T01:14:24.973Z,6.20
2018-06-14T01:16:55.908Z,4.30
2018-06-14T01:19:26.780Z,5.73
2018-06-14T01:21:57.793Z,5.13
2018-06-14T01:24:28.870Z,4.90
2018-06-14T01:27:00.720Z,5.10
2018-06-14T01:29:31.797Z,5.00
2018-06-14T01:32:02.884Z,7.13
2018-06-14T01:34:34.179Z,4.60
2018-06-14T01:37:06.244Z,4.90
2018-06-14T01:39:36.992Z,4.73
2018-06-14T01:42:08.898Z,5.70
2018-06-14T01:44:39.822Z,5.20
2018-06-14T01:47:10.883Z,5.13
2018-06-14T01:49:41.793Z,5.27
2018-06-14T01:52:12.864Z,5.97
2018-06-14T01:54:43.887Z,8.67
2018-06-14T01:57:15.779Z,4.73
2018-06-14T01:59:46.994Z,8.53
2018-06-14T02:02:18.162Z,13.93
2018-06-14T02:04:49.192Z,7.00
2018-06-14T02:07:21.092Z,5.73
2018-06-14T02:09:53.002Z,7.60
2018-06-14T02:12:24.085Z,7.03
2018-06-14T02:14:54.939Z,5.20
2018-06-14T02:17:26.813Z,8.63
2018-06-14T02:19:57.963Z,6.20
2018-06-14T02:22:28.938Z,6.00
2018-06-14T02:25:00.208Z,5.70
2018-06-14T02:27:31.363Z,5.13
2018-06-14T02:30:02.351Z,8.03
2018-06-14T02:32:34.222Z,7.80
2018-06-14T02:35:05.335Z,5.50
2018-06-14T02:37:41.880Z,6.10
2018-06-14T02:40:13.645Z,5.40
2018-06-14T02:43:00.130Z,5.90
2018-06-14T02:45:36.495Z,9.40
2018-06-14T02:48:07.058Z,7.07
2018-06-14T02:50:37.650Z,6.47
2018-06-14T02:53:08.297Z,5.67
2018-06-14T02:55:38.698Z,5.47
2018-06-14T02:58:09.323Z,7.17
2018-06-14T03:00:39.971Z,10.00
2018-06-14T03:03:10.699Z,10.07
2018-06-14T03:05:41.262Z,5.93
2018-06-14T03:08:12.492Z,4.30
2018-06-14T03:10:43.030Z,6.93
2018-06-14T03:13:13.741Z,3.50
2018-06-14T03:15:44.233Z,4.87
2018-06-14T03:18:14.860Z,3.37
2018-06-14T03:20:45.518Z,4.33
2018-06-14T03:23:16.271Z,8.13
2018-06-14T03:25:47.811Z,12.33
2018-06-14T03:28:19.164Z,3.30
2018-06-14T03:30:49.803Z,3.83
2018-06-14T03:33:21.148Z,3.40
2018-06-14T03:35:51.666Z,8.63
2018-06-14T03:38:22.168Z,4.40
2018-06-14T03:40:52.980Z,6.50
2018-06-14T03:43:23.657Z,4.17
2018-06-14T03:45:54.394Z,4.50
2018-06-14T03:48:24.885Z,4.00
2018-06-14T03:50:55.314Z,3.53
2018-06-14T03:53:25.882Z,4.27
2018-06-14T03:55:56.839Z,4.70
2018-06-14T03:58:28.232Z,4.60
2018-06-14T04:00:58.859Z,3.90
2018-06-14T04:03:30.327Z,5.20
2018-06-14T04:06:00.693Z,4.60
2018-06-14T04:08:31.864Z,4.27
2018-06-14T04:11:04.530Z,4.80
2018-06-14T04:13:35.563Z,4.07
2018-06-14T04:16:07.662Z,6.80
2018-06-14T04:18:38.599Z,5.93
2018-06-14T04:21:09.568Z,4.70
2018-06-14T04:23:40.700Z,4.17
2018-06-14T04:26:11.761Z,4.43
2018-06-14T04:28:44.284Z,4.10
2018-06-14T04:31:15.115Z,4.33
2018-06-14T04:33:47.023Z,4.43
2018-06-14T04:36:18.140Z,4.60
2018-06-14T04:38:50.309Z,4.70
2018-06-14T04:41:21.401Z,4.87
2018-06-14T04:43:52.391Z,4.30
2018-06-14T04:46:23.430Z,4.77
2018-06-14T04:48:54.440Z,4.73
2018-06-14T04:51:25.476Z,4.77
2018-06-14T04:53:56.723Z,4.60
2018-06-14T04:56:27.739Z,4.87
2018-06-14T04:58:59.109Z,7.60
2018-06-14T05:01:30.024Z,4.70
2018-06-14T05:04:01.907Z,4.80
2018-06-14T05:06:34.059Z,4.70
2018-06-14T05:09:07.281Z,5.07
2018-06-14T05:11:38.431Z,4.93
2018-06-14T05:14:09.790Z,5.10
2018-06-14T05:16:41.877Z,4.67
2018-06-14T05:19:12.901Z,4.83
2018-06-14T05:21:43.992Z,4.20
2018-06-14T05:24:15.485Z,5.43
2018-06-14T05:26:47.385Z,4.70
2018-06-14T05:29:18.380Z,7.57
2018-06-14T05:31:49.344Z,5.10
2018-06-14T05:34:20.458Z,4.97
2018-06-14T05:36:51.674Z,4.80
2018-06-14T05:39:23.755Z,4.90
2018-06-14T05:41:55.477Z,11.43
2018-06-14T05:44:26.526Z,4.80
2018-06-14T05:46:57.574Z,6.30
2018-06-14T05:49:29.362Z,5.37
2018-06-14T05:52:00.279Z,5.70
2018-06-14T05:54:31.261Z,5.20
2018-06-14T05:57:02.416Z,6.50
2018-06-14T05:59:34.497Z,6.60
2018-06-14T06:02:05.426Z,5.90
2018-06-14T06:04:36.573Z,4.87
2018-06-14T06:07:07.872Z,5.23
2018-06-14T06:09:40.210Z,5.57
2018-06-14T06:12:12.292Z,6.60
2018-06-14T06:14:43.559Z,5.27
2018-06-14T06:17:15.413Z,5.30
2018-06-14T06:19:46.734Z,5.30
2018-06-14T06:22:17.908Z,4.80
2018-06-14T06:24:49.186Z,5.23
2018-06-14T06:27:20.251Z,9.63
2018-06-14T06:29:52.368Z,5.40
2018-06-14T06:32:23.450Z,5.10
2018-06-14T06:34:54.323Z,5.30
2018-06-14T06:37:25.616Z,5.20
2018-06-14T06:39:57.446Z,5.23
2018-06-14T06:42:29.158Z,5.40
2018-06-14T06:45:00.157Z,6.73
2018-06-14T06:47:31.176Z,5.40
2018-06-14T06:50:03.453Z,5.20
2018-06-14T06:52:38.612Z,5.07
2018-06-14T06:55:09.692Z,4.80
2018-06-14T06:57:40.584Z,5.47
2018-06-14T07:00:12.537Z,4.60
2018-06-14T07:02:43.612Z,5.37
2018-06-14T07:05:14.401Z,4.50
2018-06-14T07:07:45.276Z,4.10
2018-06-14T07:10:16.434Z,4.60
2018-06-14T07:12:50.760Z,10.57
2018-06-14T07:15:21.855Z,4.90
2018-06-14T07:17:52.926Z,4.40
2018-06-14T07:20:23.791Z,4.20
2018-06-14T07:22:54.814Z,5.50
2018-06-14T07:25:26.890Z,4.73
2018-06-14T07:27:58.015Z,5.00
2018-06-14T07:30:29.801Z,5.37
2018-06-14T07:33:00.893Z,5.73
2018-06-14T07:35:31.924Z,5.10
2018-06-14T07:38:03.049Z,5.43
2018-06-14T07:40:34.399Z,4.50
2018-06-14T07:43:06.532Z,5.23
2018-06-14T07:45:37.566Z,4.50
2018-06-14T07:48:08.858Z,5.00
2018-06-14T07:50:40.061Z,10.03
2018-06-14T07:53:10.995Z,5.93
2018-06-14T07:55:42.811Z,5.47
2018-06-14T07:58:13.937Z,5.33
2018-06-14T08:00:44.914Z,5.27
2018-06-14T08:03:16.204Z,9.93
2018-06-14T08:05:47.451Z,5.47
2018-06-14T08:08:18.418Z,5.80
2018-06-14T08:10:49.504Z,5.80
2018-06-14T08:13:22.897Z,14.77
2018-06-14T08:15:53.997Z,6.00
2018-06-14T08:18:25.238Z,5.80
2018-06-14T08:20:56.628Z,5.77
2018-06-14T08:23:28.120Z,5.77
2018-06-14T08:25:59.314Z,6.00
2018-06-14T08:28:30.197Z,5.50
2018-06-14T08:31:03.063Z,6.13
2018-06-14T08:33:34.140Z,6.23
2018-06-14T08:36:05.148Z,11.27
2018-06-14T08:38:36.336Z,5.87
2018-06-14T08:41:07.547Z,5.73
2018-06-14T08:43:38.580Z,5.50
2018-06-14T08:46:09.637Z,5.20
2018-06-14T08:48:40.368Z,9.30
2018-06-14T08:51:11.603Z,6.50
2018-06-14T08:53:42.864Z,5.53
2018-06-14T08:56:14.102Z,5.60
2018-06-14T08:58:45.225Z,5.63
2018-06-14T09:01:16.314Z,6.63
2018-06-14T09:03:47.579Z,7.47
2018-06-14T09:06:18.604Z,5.23
2018-06-14T09:08:50.169Z,6.60
2018-06-14T09:11:21.489Z,9.53
2018-06-14T09:13:52.420Z,5.07
2018-06-14T09:16:23.837Z,6.17
2018-06-14T09:18:55.176Z,4.80
2018-06-14T09:21:26.977Z,4.87
2018-06-14T09:23:58.174Z,5.53
2018-06-14T09:26:29.098Z,5.23
2018-06-14T09:28:59.843Z,4.23
2018-06-14T09:31:30.960Z,4.60
2018-06-14T09:34:01.950Z,5.60
2018-06-14T09:36:34.161Z,5.10
2018-06-14T09:39:06.954Z,5.10
2018-06-14T09:41:38.412Z,6.37
2018-06-14T09:44:09.717Z,5.10
2018-06-14T09:46:41.153Z,4.90
2018-06-14T09:49:16.258Z,5.47
2018-06-14T09:51:48.697Z,4.67
2018-06-14T09:54:19.834Z,5.07
2018-06-14T09:56:51.710Z,4.60
2018-06-14T09:59:23.282Z,5.70
2018-06-14T10:01:55.538Z,4.60
2018-06-14T10:04:26.637Z,4.70
2018-06-14T10:06:58.785Z,14.07
2018-06-14T10:09:29.936Z,5.00
2018-06-14T10:12:01.160Z,4.50
2018-06-14T10:14:32.400Z,4.70
2018-06-14T10:17:04.168Z,4.40
2018-06-14T10:19:35.452Z,5.23
2018-06-14T10:22:06.712Z,5.57
2018-06-14T10:24:37.742Z,5.77
2018-06-14T10:27:08.763Z,4.83
2018-06-14T10:29:41.602Z,5.23
2018-06-14T10:32:12.834Z,5.57
2018-06-14T10:34:43.908Z,4.80
2018-06-14T10:37:15.150Z,18.07
2018-06-14T10:39:46.371Z,5.13
2018-06-14T10:42:17.691Z,5.73
2018-06-14T10:44:48.851Z,8.27
2018-06-14T10:47:20.709Z,4.90
2018-06-14T10:49:51.858Z,5.17
2018-06-14T10:52:25.747Z,5.40
2018-06-14T10:54:57.308Z,8.83
2018-06-14T10:57:28.553Z,6.10
2018-06-14T10:59:59.753Z,5.47
2018-06-14T11:02:30.848Z,6.80
2018-06-14T11:05:01.939Z,5.80
2018-06-14T11:07:33.269Z,5.10
2018-06-14T11:10:04.239Z,6.07
2018-06-14T11:12:35.179Z,5.70
2018-06-14T11:15:07.418Z,5.13
2018-06-14T11:17:38.642Z,7.13
2018-06-14T11:20:09.832Z,5.87
2018-06-14T11:22:43.031Z,5.20
2018-06-14T11:25:14.413Z,5.60
2018-06-14T11:27:46.191Z,5.07
2018-06-14T11:30:18.253Z,4.70
2018-06-14T11:32:49.317Z,5.10
2018-06-14T11:35:21.173Z,5.40
2018-06-14T11:37:52.608Z,5.33
2018-06-14T11:40:24.257Z,4.73
2018-06-14T11:42:55.693Z,6.30
2018-06-14T11:45:26.811Z,5.30
2018-06-14T11:47:57.525Z,7.53
2018-06-14T11:50:28.524Z,5.83
2018-06-14T11:52:59.705Z,4.60
2018-06-14T11:55:30.633Z,5.50
2018-06-14T11:58:32.698Z,8.50
2018-06-14T12:01:03.793Z,5.80
2018-06-14T12:03:35.267Z,6.20
2018-06-14T12:06:06.545Z,4.67
2018-06-14T12:08:37.484Z,5.30
2018-06-14T12:11:09.344Z,7.40
2018-06-14T12:13:41.417Z,5.00
2018-06-14T12:16:12.663Z,9.17
2018-06-14T12:18:44.036Z,4.43
2018-06-14T12:21:15.276Z,10.83
2018-06-14T12:23:47.118Z,5.47
2018-06-14T12:26:18.352Z,4.93
2018-06-14T12:28:50.150Z,5.97
2018-06-14T12:31:21.167Z,5.60
2018-06-14T12:33:52.274Z,5.07
2018-06-14T12:36:23.473Z,5.80
2018-06-14T12:38:54.651Z,5.53
2018-06-14T12:41:25.413Z,5.23
2018-06-14T12:43:57.218Z,6.30
2018-06-14T12:46:28.131Z,4.97
2018-06-14T12:48:59.420Z,6.70
2018-06-14T12:51:30.543Z,5.20
2018-06-14T12:54:01.880Z,6.07
2018-06-14T12:56:33.002Z,5.03
2018-06-14T12:59:04.164Z,5.57
2018-06-14T13:01:37.099Z,5.17
2018-06-14T13:04:08.404Z,5.10
2018-06-14T13:06:39.639Z,5.43
2018-06-14T13:09:12.750Z,6.43
2018-06-14T13:11:43.731Z,5.07
2018-06-14T13:14:14.866Z,5.10
2018-06-14T13:16:45.985Z,6.30
2018-06-14T13:19:18.263Z,18.70
2018-06-14T13:21:49.354Z,6.33
2018-06-14T13:24:21.445Z,12.23
2018-06-14T13:26:52.568Z,5.57
2018-06-14T13:29:25.709Z,5.10
2018-06-14T13:31:58.164Z,6.80
2018-06-14T13:34:29.286Z,5.20
2018-06-14T13:37:00.668Z,5.30
2018-06-14T13:39:31.906Z,5.50
2018-06-14T13:42:03.057Z,5.67
2018-06-14T13:44:34.005Z,11.37
2018-06-14T13:47:04.942Z,5.60
2018-06-14T13:49:36.157Z,4.93
2018-06-14T13:52:08.859Z,4.97
2018-06-14T13:54:40.897Z,4.93
2018-06-14T13:57:12.073Z,7.50
2018-06-14T13:59:43.180Z,5.63
2018-06-14T14:02:14.526Z,4.90
2018-06-14T14:04:45.724Z,5.27
2018-06-14T14:07:20.719Z,5.57
2018-06-14T14:09:52.070Z,4.93
2018-06-14T14:12:23.290Z,5.40
2018-06-14T14:14:55.597Z,8.00
2018-06-14T14:17:28.002Z,4.53
2018-06-14T14:19:59.279Z,4.93
2018-06-14T14:22:31.108Z,5.77
2018-06-14T14:25:02.358Z,5.13
2018-06-14T14:27:33.226Z,7.20
2018-06-14T14:30:06.214Z,5.50
2018-06-14T14:32:37.395Z,4.43
2018-06-14T14:35:08.832Z,5.00
2018-06-14T14:37:39.973Z,5.20
2018-06-14T14:40:11.061Z,5.30
2018-06-14T14:42:42.092Z,6.97
2018-06-14T14:45:13.013Z,4.83
2018-06-14T14:47:43.953Z,5.30
2018-06-14T14:50:15.259Z,5.60
2018-06-14T14:52:46.349Z,5.17
2018-06-14T14:55:18.005Z,6.10
2018-06-14T14:57:49.295Z,4.47
2018-06-14T15:00:20.606Z,4.93
2018-06-14T15:02:52.843Z,4.90
2018-06-14T15:08:00.990Z,4.90
2018-06-14T15:10:33.598Z,5.10
2018-06-14T15:13:04.361Z,5.00
2018-06-14T15:15:35.845Z,5.50
2018-06-14T15:18:06.851Z,7.43
2018-06-14T15:20:38.150Z,6.70
2018-06-14T15:23:09.130Z,4.30
2018-06-14T15:25:40.122Z,4.63
2018-06-14T15:28:12.275Z,4.50
2018-06-14T15:30:44.274Z,5.87
2018-06-14T15:33:15.083Z,5.30
2018-06-14T15:35:45.778Z,4.10
2018-06-14T15:38:16.381Z,5.40
2018-06-14T15:40:48.503Z,4.10
2018-06-14T15:43:19.558Z,4.50
2018-06-14T15:45:50.620Z,3.80
2018-06-14T15:48:21.757Z,4.23
2018-06-14T15:50:52.856Z,9.93
2018-06-14T15:53:24.903Z,7.30
2018-06-14T15:56:11.493Z,4.70
2018-06-14T15:58:46.491Z,6.50
2018-06-14T16:01:18.542Z,4.33
2018-06-14T16:03:49.829Z,4.03
2018-06-14T16:06:21.161Z,5.20
2018-06-14T16:08:52.371Z,3.77
2018-06-14T16:11:23.807Z,3.83
2018-06-14T16:13:55.389Z,8.80
2018-06-14T16:16:26.793Z,4.23
2018-06-14T16:19:04.157Z,3.63
2018-06-14T16:21:36.086Z,15.13
2018-06-14T16:24:07.143Z,11.90
2018-06-14T16:26:38.320Z,21.77
2018-06-14T16:29:09.816Z,47.57
2018-06-14T16:31:41.816Z,47.40
2018-06-14T16:34:13.572Z,19.73
2018-06-14T16:36:44.635Z,6.23
2018-06-14T16:39:15.819Z,10.23
2018-06-14T16:41:47.366Z,12.57
2018-06-14T16:44:18.392Z,16.87
2018-06-14T16:46:49.601Z,6.23
2018-06-14T16:49:20.586Z,44.17
2018-06-14T16:51:52.698Z,5.37
2018-06-14T16:54:23.798Z,5.10
2018-06-14T16:56:54.857Z,11.10
2018-06-14T16:59:26.433Z,5.03
2018-06-14T17:01:58.350Z,6.17
2018-06-14T17:04:29.578Z,5.77
2018-06-14T17:07:00.802Z,12.20
2018-06-14T17:09:32.005Z,19.07
2018-06-14T17:12:03.395Z,18.73
2018-06-14T17:14:34.893Z,8.63
2018-06-14T17:17:06.120Z,8.43
2018-06-14T17:19:43.037Z,7.57
2018-06-14T17:22:14.268Z,9.40
2018-06-14T17:24:46.015Z,9.60
2018-06-14T17:27:17.301Z,5.90
2018-06-14T17:29:53.087Z,13.07
2018-06-14T17:32:25.035Z,8.30
2018-06-14T17:34:56.135Z,6.13
2018-06-14T17:37:27.192Z,8.83
2018-06-14T17:39:58.336Z,12.33
2018-06-14T17:42:29.512Z,11.00
2018-06-14T17:45:00.628Z,6.10
2018-06-14T17:47:32.506Z,9.93
2018-06-14T17:50:03.733Z,10.07
2018-06-14T17:52:35.082Z,7.90
2018-06-14T17:55:07.419Z,5.63
2018-06-14T17:57:50.385Z,11.43
2018-06-14T18:00:21.815Z,12.00
2018-06-14T18:02:52.948Z,11.90
2018-06-14T18:05:24.030Z,10.33
2018-06-14T18:07:55.293Z,9.23
2018-06-14T18:10:30.137Z,7.20
2018-06-14T18:13:01.290Z,7.90
2018-06-14T18:15:32.486Z,8.20
2018-06-14T18:20:44.395Z,9.47
2018-06-14T18:23:15.851Z,9.63
2018-06-14T18:25:48.137Z,8.00
2018-06-14T18:28:19.812Z,7.10
2018-06-14T18:30:51.466Z,15.83
2018-06-14T18:33:25.811Z,16.27
2018-06-14T18:35:58.641Z,10.90
2018-06-14T18:38:29.920Z,13.53
2018-06-14T18:41:01.600Z,8.83
2018-06-14T18:43:33.061Z,24.80
2018-06-14T18:46:04.756Z,10.40
2018-06-14T18:48:39.373Z,12.20
2018-06-14T18:51:11.122Z,10.00
2018-06-14T18:53:43.029Z,10.07
2018-06-14T18:56:15.197Z,9.20
2018-06-14T18:58:45.055Z,14.23
2018-06-14T19:01:16.074Z,16.83
2018-06-14T19:03:57.132Z,17.53
2018-06-14T19:06:28.458Z,8.67
2018-06-14T19:08:59.604Z,9.87
2018-06-14T19:11:32.759Z,8.60
2018-06-14T19:14:05.375Z,8.07
2018-06-14T19:16:37.154Z,8.33
2018-06-14T19:19:08.784Z,11.20
2018-06-14T19:21:51.232Z,8.00
2018-06-14T19:24:25.132Z,8.37
2018-06-14T19:26:56.721Z,7.37
2018-06-14T19:29:28.005Z,7.83
2018-06-14T19:31:59.211Z,13.37
2018-06-14T19:34:30.248Z,8.90
2018-06-14T19:37:01.298Z,9.97
2018-06-14T19:39:32.764Z,18.53
2018-06-14T19:42:04.980Z,12.57
2018-06-14T19:44:36.118Z,8.70
2018-06-14T19:47:07.978Z,23.20
2018-06-14T19:49:39.252Z,11.17
2018-06-14T19:52:10.369Z,19.40
2018-06-14T19:54:43.060Z,18.40
2018-06-14T19:57:14.789Z,15.33
2018-06-14T19:59:46.836Z,29.70
2018-06-14T20:02:19.494Z,35.87
2018-06-14T20:04:52.007Z,24.63
2018-06-14T20:07:23.277Z,23.87
2018-06-14T20:09:55.164Z,13.80
2018-06-14T20:12:26.420Z,16.13
2018-06-14T20:14:57.768Z,11.90
2018-06-14T20:17:29.321Z,17.97
2018-06-14T20:20:00.438Z,13.00
2018-06-14T20:22:31.459Z,10.83
2018-06-14T20:25:02.507Z,12.33
2018-06-14T20:27:33.794Z,10.33
2018-06-14T20:30:05.272Z,10.73
2018-06-14T20:32:36.689Z,15.20
2018-06-14T20:35:08.648Z,11.93
2018-06-14T20:37:39.826Z,10.90
2018-06-14T20:40:11.251Z,11.47
2018-06-14T20:42:42.438Z,16.70
2018-06-14T20:45:13.580Z,12.43
2018-06-14T20:47:44.713Z,10.33
2018-06-14T20:50:16.991Z,13.93
2018-06-14T20:52:49.003Z,13.43
2018-06-14T20:55:20.305Z,17.43
2018-06-14T20:57:51.632Z,13.90
2018-06-14T21:00:22.910Z,12.20
2018-06-14T21:02:54.804Z,11.30
2018-06-14T21:05:26.786Z,10.90
2018-06-14T21:07:57.866Z,12.10
2018-06-14T21:10:29.820Z,11.93
2018-06-14T21:13:00.951Z,14.00
2018-06-14T21:15:33.174Z,21.60
2018-06-14T21:18:04.171Z,12.07
2018-06-14T21:20:35.422Z,11.80
2018-06-14T21:23:07.834Z,14.00
2018-06-14T21:25:38.918Z,11.43
2018-06-14T21:28:10.124Z,13.50
2018-06-14T21:30:41.225Z,14.13
2018-06-14T21:33:12.821Z,12.83
2018-06-14T21:35:44.968Z,18.43
2018-06-14T21:38:16.296Z,12.93
2018-06-14T21:40:48.262Z,11.43
2018-06-14T21:43:19.306Z,12.07
2018-06-14T21:45:50.502Z,12.53
2018-06-14T21:48:21.482Z,15.03
2018-06-14T21:50:52.533Z,13.10
2018-06-14T21:53:23.666Z,12.10
2018-06-14T21:55:54.847Z,12.70
2018-06-14T21:58:25.679Z,12.43
2018-06-14T22:00:57.990Z,14.67
2018-06-14T22:03:34.047Z,12.30
2018-06-14T22:06:05.276Z,18.33
2018-06-14T22:08:37.313Z,13.43
2018-06-14T22:11:09.177Z,10.77
2018-06-14T22:13:40.373Z,11.93
2018-06-14T22:16:11.371Z,11.50
2018-06-14T22:18:42.401Z,12.33
2018-06-14T22:21:13.759Z,12.83
2018-06-14T22:23:45.032Z,12.07
2018-06-14T22:26:16.533Z,11.37
2018-06-14T22:28:47.650Z,10.80
2018-06-14T22:31:19.275Z,12.97
2018-06-14T22:34:00.855Z,12.00
2018-06-14T22:36:32.872Z,11.67
2018-06-14T22:39:04.248Z,12.83
2018-06-14T22:41:35.332Z,19.47
2018-06-14T22:44:06.409Z,11.97
2018-06-14T22:46:37.470Z,11.50
2018-06-14T22:49:08.763Z,12.30
2018-06-14T22:51:50.293Z,14.00
2018-06-14T22:54:21.278Z,13.50
2018-06-14T22:56:52.211Z,12.87
2018-06-14T22:59:23.419Z,13.53
2018-06-14T23:01:54.805Z,18.10
2018-06-14T23:04:27.116Z,13.50
2018-06-14T23:06:59.555Z,15.10
2018-06-14T23:10:42.535Z,12.30
2018-06-14T23:13:14.788Z,13.10
2018-06-14T23:15:45.870Z,14.40
2018-06-14T23:18:18.252Z,12.73
2018-06-14T23:20:50.003Z,14.70
2018-06-14T23:23:21.184Z,13.67
2018-06-14T23:25:52.482Z,14.87
2018-06-14T23:28:23.451Z,17.07
2018-06-14T23:30:54.659Z,16.23
2018-06-14T23:33:25.872Z,14.83
2018-06-14T23:35:57.045Z,14.30
2018-06-14T23:38:28.958Z,14.77
2018-06-14T23:41:00.105Z,20.60
2018-06-14T23:43:31.373Z,13.63
2018-06-14T23:46:02.629Z,14.03
2018-06-14T23:48:34.551Z,16.57
2018-06-14T23:51:05.581Z,13.17
2018-06-14T23:53:36.519Z,24.37
2018-06-14T23:56:07.431Z,15.30
2018-06-14T23:58:38.400Z,16.20
